Huvudsida
METAR-TAF:

METAR-TAF

Flygplatser :

Luni

Sarzana, Italien

latitud: 44-05N, longitud: 009-59E, höjd: 9 m

Aktuellt väderrapport

Denna rapport gjordes för 12 timmar och 21 minuter sedan, klockan 10:55 UTC
Temperatur 13°C
Fuktighet 94%
Tryck 1002 hPa
Sikt: 6000 m
Spridda moln på en höjd av 2500 ft
Brutna moln på en höjd av 3000 ft
lätt regn

METAR: LIQW 151055Z /////KT 6000 -RA SCT025 BKN030 13/12 Q1002

Tid: 00:16 (23:16 UTC)

Väderprognos

Denna rapport gjordes för 15 timmar och 16 minuter sedan, klockan 08:00 UTC
Prognos gäller från 15 kl. 09 UTC till 15 kl. 18 UTC
Vind 8 kt från nord/nordost
Sikt: 7000 m
Spridda moln på en höjd av 3000 ft
Brutna moln på en höjd av 4000 ft
regn
Temporärt
från 15 kl. 12 UTC till 15 kl. 18 UTC
Vind 15 kt från nord i byarna ända upp till 25 kt

TAF: LIQW 150800Z 1509/1518 02008KT 7000 RA SCT030 BKN040 TEMPO 1512/1518 01015G25KT

Aktuella väderrapporter och prognoser från 4000 flygplatser (METAR- och TAF-rapporter).

De tillgängliga stationerna syns som gula och röda prickar på kartan.

För musen över prickarna för att se namnen på stationerna.

Klicka sedan för att få väderrapporter och prognoser.

För att ändra kartan: Klicka på de gröna knapparna med ett svart kors på för att zooma in; den gröna knappen med ett streck på för att zooma ut; eller på de gröna pilarna för angränsande kartor.


METAR-TAF: